createdAt,value
2022-11-26T00:00:50.807Z,10.30
2022-11-26T00:02:54.526Z,9.20
2022-11-26T00:04:58.463Z,10.63
2022-11-26T00:07:01.067Z,11.13
2022-11-26T00:09:07.306Z,10.15
2022-11-26T00:11:16.631Z,12.55
2022-11-26T00:13:22.445Z,10.35
2022-11-26T00:15:27.347Z,10.07
2022-11-26T00:17:29.970Z,10.88
2022-11-26T00:19:32.569Z,9.75
2022-11-26T00:21:38.483Z,9.00
2022-11-26T00:23:41.110Z,8.63
2022-11-26T00:25:47.908Z,8.70
2022-11-26T00:27:51.478Z,7.78
2022-11-26T00:29:54.134Z,7.38
2022-11-26T00:31:56.808Z,6.85
2022-11-26T00:33:59.504Z,8.32
2022-11-26T00:36:04.784Z,9.77
2022-11-26T00:38:07.504Z,10.15
2022-11-26T00:40:23.297Z,9.60
2022-11-26T00:42:27.302Z,10.10
2022-11-26T00:44:29.881Z,11.20
2022-11-26T00:46:32.529Z,11.05
2022-11-26T00:48:35.122Z,10.85
2022-11-26T00:50:40.626Z,12.10
2022-11-26T00:52:43.828Z,12.18
2022-11-26T00:54:46.485Z,10.68
2022-11-26T00:56:50.514Z,9.25
2022-11-26T00:58:54.473Z,9.23
2022-11-26T01:00:59.200Z,8.65
2022-11-26T01:03:02.852Z,9.05
2022-11-26T01:05:05.982Z,8.77
2022-11-26T01:07:11.104Z,9.20
2022-11-26T01:09:18.502Z,10.05
2022-11-26T01:11:23.210Z,9.52
2022-11-26T01:13:26.347Z,7.85
2022-11-26T01:15:30.360Z,8.05
2022-11-26T01:17:32.990Z,8.18
2022-11-26T01:19:36.342Z,7.30
2022-11-26T01:21:39.319Z,7.15
2022-11-26T01:23:42.165Z,6.82
2022-11-26T01:25:45.552Z,5.50
2022-11-26T01:27:48.200Z,6.15
2022-11-26T01:29:50.781Z,7.82
2022-11-26T01:31:54.881Z,6.57
2022-11-26T01:33:58.197Z,6.78
2022-11-26T01:36:03.238Z,6.13
2022-11-26T01:38:06.239Z,7.97
2022-11-26T01:40:53.701Z,6.32
2022-11-26T01:43:00.348Z,6.32
2022-11-26T01:45:03.012Z,5.85
2022-11-26T01:47:21.372Z,6.38
2022-11-26T01:49:25.880Z,5.90
2022-11-26T01:51:29.802Z,6.15
2022-11-26T01:53:38.147Z,6.82
2022-11-26T01:55:45.972Z,5.70
2022-11-26T01:57:49.692Z,5.43
2022-11-26T01:59:54.997Z,6.32
2022-11-26T02:02:00.364Z,7.28
2022-11-26T02:04:12.903Z,5.35
2022-11-26T02:06:20.435Z,5.93
2022-11-26T02:08:26.138Z,6.63
2022-11-26T02:10:28.834Z,5.75
2022-11-26T02:12:31.641Z,6.22
2022-11-26T02:14:37.884Z,5.80
2022-11-26T02:16:59.916Z,5.53
2022-11-26T02:19:46.123Z,5.50
2022-11-26T02:21:57.323Z,5.22
2022-11-26T02:24:46.716Z,5.35
2022-11-26T02:27:30.682Z,5.15
2022-11-26T02:30:04.089Z,5.13
2022-11-26T02:32:09.598Z,5.32
2022-11-26T02:34:19.078Z,5.40
2022-11-26T02:36:26.541Z,5.22
2022-11-26T02:38:31.091Z,5.07
2022-11-26T02:40:33.773Z,5.07
2022-11-26T02:42:38.021Z,5.32
2022-11-26T02:44:45.729Z,4.57
2022-11-26T02:46:53.953Z,4.70
2022-11-26T02:48:56.632Z,4.95
2022-11-26T02:51:02.799Z,4.78
2022-11-26T02:53:06.540Z,5.35
2022-11-26T02:55:13.495Z,4.65
2022-11-26T02:57:19.853Z,4.63
2022-11-26T02:59:22.955Z,4.32
2022-11-26T03:01:31.821Z,5.20
2022-11-26T03:03:40.530Z,5.13
2022-11-26T03:05:46.242Z,4.60
2022-11-26T03:07:52.722Z,4.45
2022-11-26T03:09:57.509Z,4.50
2022-11-26T03:12:00.209Z,4.53
2022-11-26T03:14:02.963Z,4.35
2022-11-26T03:16:06.104Z,4.15
2022-11-26T03:18:08.823Z,3.80
2022-11-26T03:20:13.245Z,4.00
2022-11-26T03:22:16.192Z,4.88
2022-11-26T03:24:18.771Z,4.20
2022-11-26T03:26:21.362Z,4.70
2022-11-26T03:28:24.014Z,4.38
2022-11-26T03:30:26.723Z,4.68
2022-11-26T03:32:29.387Z,4.53
2022-11-26T03:34:32.017Z,4.50
2022-11-26T03:36:35.998Z,4.18
2022-11-26T03:38:38.594Z,4.32
2022-11-26T03:40:41.219Z,4.07
2022-11-26T03:42:43.941Z,4.97
2022-11-26T03:44:46.574Z,4.97
2022-11-26T03:46:49.217Z,4.10
2022-11-26T03:48:52.110Z,4.38
2022-11-26T03:50:54.739Z,4.18
2022-11-26T03:52:58.708Z,4.85
2022-11-26T03:55:01.356Z,4.45
2022-11-26T03:57:04.055Z,4.68
2022-11-26T03:59:06.843Z,5.75
2022-11-26T04:01:10.733Z,3.95
2022-11-26T04:03:13.451Z,4.82
2022-11-26T04:05:16.189Z,4.30
2022-11-26T04:07:19.022Z,4.40
2022-11-26T04:09:23.047Z,5.03
2022-11-26T04:11:25.672Z,4.30
2022-11-26T04:13:28.428Z,4.88
2022-11-26T04:15:31.073Z,4.10
2022-11-26T04:17:33.698Z,4.28
2022-11-26T04:19:36.321Z,4.43
2022-11-26T04:21:38.984Z,4.00
2022-11-26T04:23:41.660Z,3.92
2022-11-26T04:25:45.601Z,4.05
2022-11-26T04:27:48.227Z,4.50
2022-11-26T04:29:50.859Z,4.00
2022-11-26T04:31:53.530Z,4.53
2022-11-26T04:33:56.247Z,4.35
2022-11-26T04:35:58.844Z,4.60
2022-11-26T04:38:01.466Z,4.28
2022-11-26T04:40:04.505Z,4.28
2022-11-26T04:42:08.539Z,4.13
2022-11-26T04:44:11.162Z,4.00
2022-11-26T04:46:13.786Z,4.25
2022-11-26T04:48:16.465Z,4.30
2022-11-26T04:50:19.188Z,3.95
2022-11-26T04:52:21.792Z,3.92
2022-11-26T04:54:24.413Z,4.35
2022-11-26T04:56:27.030Z,4.68
2022-11-26T04:58:30.998Z,4.10
2022-11-26T05:00:33.623Z,4.63
2022-11-26T05:02:36.254Z,4.35
2022-11-26T05:04:39.092Z,4.72
2022-11-26T05:06:41.774Z,4.70
2022-11-26T05:08:44.460Z,4.38
2022-11-26T05:10:47.060Z,5.10
2022-11-26T05:12:49.640Z,4.75
2022-11-26T05:14:53.650Z,5.22
2022-11-26T05:16:56.259Z,4.47
2022-11-26T05:18:58.909Z,3.47
2022-11-26T05:21:01.496Z,4.32
2022-11-26T05:23:04.102Z,4.05
2022-11-26T05:25:07.284Z,5.32
2022-11-26T05:27:09.884Z,4.20
2022-11-26T05:29:15.165Z,4.22
2022-11-26T05:31:19.336Z,3.67
2022-11-26T05:33:21.993Z,4.93
2022-11-26T05:35:24.676Z,4.07
2022-11-26T05:37:27.427Z,4.15
2022-11-26T05:39:30.131Z,5.15
2022-11-26T05:41:32.797Z,4.25
2022-11-26T05:43:35.419Z,4.20
2022-11-26T05:45:38.200Z,4.45
2022-11-26T05:47:42.229Z,4.57
2022-11-26T05:49:44.981Z,5.10
2022-11-26T05:51:47.709Z,5.03
2022-11-26T05:53:50.296Z,5.20
2022-11-26T05:55:52.987Z,4.75
2022-11-26T05:57:55.593Z,4.60
2022-11-26T05:59:58.151Z,4.75
2022-11-26T06:02:00.845Z,4.00
2022-11-26T06:04:05.236Z,4.30
2022-11-26T06:06:08.391Z,4.13
2022-11-26T06:08:10.946Z,4.53
2022-11-26T06:10:13.770Z,4.35
2022-11-26T06:12:16.385Z,4.38
2022-11-26T06:14:19.302Z,5.18
2022-11-26T06:16:21.923Z,4.80
2022-11-26T06:18:24.678Z,5.28
2022-11-26T06:20:28.779Z,5.57
2022-11-26T06:22:31.752Z,5.45
2022-11-26T06:24:34.538Z,4.47
2022-11-26T06:26:37.124Z,4.65
2022-11-26T06:28:40.680Z,4.47
2022-11-26T06:30:45.150Z,4.40
2022-11-26T06:32:47.746Z,4.65
2022-11-26T06:34:53.986Z,4.70
2022-11-26T06:36:58.256Z,4.28
2022-11-26T06:39:00.842Z,4.68
2022-11-26T06:41:05.047Z,5.47
2022-11-26T06:43:07.702Z,5.15
2022-11-26T06:45:11.823Z,5.95
2022-11-26T06:47:15.204Z,5.60
2022-11-26T06:49:17.782Z,5.90
2022-11-26T06:51:21.869Z,5.68
2022-11-26T06:53:25.766Z,5.72
2022-11-26T06:55:28.367Z,6.03
2022-11-26T06:57:30.975Z,5.55
2022-11-26T06:59:33.696Z,4.90
2022-11-26T07:01:36.634Z,4.30
2022-11-26T07:03:39.882Z,5.05
2022-11-26T07:05:42.492Z,4.40
2022-11-26T07:07:45.192Z,4.72
2022-11-26T07:09:49.375Z,4.90
2022-11-26T07:11:51.945Z,4.63
2022-11-26T07:13:54.755Z,5.90
2022-11-26T07:15:57.443Z,4.47
2022-11-26T07:18:00.346Z,4.45
2022-11-26T07:20:03.034Z,4.15
2022-11-26T07:22:05.944Z,4.18
2022-11-26T07:24:08.799Z,4.30
2022-11-26T07:26:13.982Z,4.28
2022-11-26T07:28:17.059Z,4.25
2022-11-26T07:30:19.835Z,4.95
2022-11-26T07:32:22.453Z,4.97
2022-11-26T07:34:25.046Z,4.72
2022-11-26T07:36:31.337Z,3.83
2022-11-26T07:38:34.768Z,4.75
2022-11-26T07:40:37.388Z,4.43
2022-11-26T07:42:41.357Z,5.00
2022-11-26T07:44:43.958Z,4.53
2022-11-26T07:46:46.546Z,4.22
2022-11-26T07:48:49.645Z,4.07
2022-11-26T07:50:52.218Z,4.28
2022-11-26T07:52:54.836Z,4.20
2022-11-26T07:54:57.450Z,4.47
2022-11-26T07:57:00.104Z,4.18
2022-11-26T07:59:04.422Z,4.25
2022-11-26T08:01:08.985Z,5.25
2022-11-26T08:03:11.597Z,4.22
2022-11-26T08:05:14.173Z,4.90
2022-11-26T08:07:24.381Z,5.10
2022-11-26T08:09:30.437Z,4.82
2022-11-26T08:11:34.839Z,5.00
2022-11-26T08:13:37.466Z,5.10
2022-11-26T08:15:41.382Z,5.30
2022-11-26T08:17:43.993Z,5.70
2022-11-26T08:19:46.589Z,4.53
2022-11-26T08:21:49.222Z,4.10
2022-11-26T08:23:52.822Z,5.32
2022-11-26T08:28:18.126Z,5.00
2022-11-26T08:30:20.734Z,5.03
2022-11-26T08:32:24.901Z,5.65
2022-11-26T08:34:27.480Z,5.80
2022-11-26T08:36:31.616Z,6.43
2022-11-26T08:38:34.702Z,5.90
2022-11-26T08:40:37.257Z,6.70
2022-11-26T08:42:39.914Z,5.38
2022-11-26T08:44:42.506Z,5.75
2022-11-26T08:46:45.081Z,5.35
2022-11-26T08:48:49.083Z,5.22
2022-11-26T08:50:52.207Z,5.05
2022-11-26T08:52:55.109Z,5.05
2022-11-26T08:54:57.726Z,5.10
2022-11-26T08:57:00.485Z,4.13
2022-11-26T08:59:03.259Z,4.95
2022-11-26T09:01:10.026Z,4.57
2022-11-26T09:03:12.912Z,5.00
2022-11-26T09:05:16.880Z,4.40
2022-11-26T09:07:19.676Z,4.65
2022-11-26T09:09:22.276Z,5.38
2022-11-26T09:11:25.781Z,4.88
2022-11-26T09:13:28.367Z,4.63
2022-11-26T09:15:31.049Z,4.88
2022-11-26T09:17:33.720Z,4.93
2022-11-26T09:19:36.344Z,4.70
2022-11-26T09:21:40.388Z,5.35
2022-11-26T09:23:43.019Z,4.82
2022-11-26T09:25:45.630Z,5.32
2022-11-26T09:27:48.211Z,5.07
2022-11-26T09:29:50.814Z,6.07
2022-11-26T09:32:23.485Z,5.20
2022-11-26T09:34:16.463Z,5.55
2022-11-26T09:36:19.828Z,6.50
2022-11-26T09:38:24.106Z,5.43
2022-11-26T09:40:42.137Z,5.85
2022-11-26T09:42:55.645Z,5.80
2022-11-26T09:45:11.232Z,5.55
2022-11-26T09:47:16.908Z,5.53
2022-11-26T09:49:20.663Z,6.00
2022-11-26T09:51:23.536Z,5.68
2022-11-26T09:53:32.614Z,5.35
2022-11-26T09:55:36.976Z,5.93
2022-11-26T09:57:43.159Z,5.70
2022-11-26T09:59:47.260Z,5.55
2022-11-26T10:01:49.890Z,6.07
2022-11-26T10:03:53.009Z,6.22
2022-11-26T10:06:00.400Z,6.57
2022-11-26T10:08:08.985Z,5.95
2022-11-26T10:10:19.535Z,6.35
2022-11-26T10:12:38.243Z,7.22
2022-11-26T10:14:58.367Z,8.38
2022-11-26T10:17:17.420Z,7.53
2022-11-26T10:19:29.072Z,8.70
2022-11-26T10:21:58.083Z,8.25
2022-11-26T10:24:07.072Z,6.65
2022-11-26T10:26:17.079Z,6.35
2022-11-26T10:28:23.566Z,5.72
2022-11-26T10:30:28.137Z,6.20
2022-11-26T10:32:37.755Z,4.93
2022-11-26T10:34:45.939Z,5.35
2022-11-26T10:36:49.891Z,5.00
2022-11-26T10:38:53.656Z,5.13
2022-11-26T10:40:56.258Z,5.30
2022-11-26T10:43:12.499Z,5.05
2022-11-26T10:45:19.818Z,4.97
2022-11-26T10:47:28.504Z,5.38
2022-11-26T10:49:31.975Z,5.85
2022-11-26T10:51:37.671Z,4.57
2022-11-26T10:53:53.254Z,4.75
2022-11-26T10:55:58.495Z,5.25
2022-11-26T10:58:05.812Z,4.90
2022-11-26T11:00:31.514Z,3.97
2022-11-26T11:02:39.240Z,4.28
2022-11-26T11:04:46.520Z,4.00
2022-11-26T11:06:49.485Z,4.30
2022-11-26T11:08:53.805Z,4.05
2022-11-26T11:10:58.236Z,3.80
2022-11-26T11:13:12.197Z,4.07
2022-11-26T11:15:22.145Z,3.40
2022-11-26T11:17:33.368Z,3.60
2022-11-26T11:19:37.359Z,3.58
2022-11-26T11:21:45.173Z,3.58
2022-11-26T11:24:08.154Z,3.97
2022-11-26T11:26:18.495Z,3.08
2022-11-26T11:28:25.979Z,3.03
2022-11-26T11:30:32.263Z,3.05
2022-11-26T11:32:37.691Z,3.05
2022-11-26T11:34:42.590Z,2.83
2022-11-26T11:36:58.815Z,3.38
2022-11-26T11:39:03.586Z,2.90
2022-11-26T11:41:18.319Z,2.40
2022-11-26T11:43:25.119Z,3.20
2022-11-26T11:45:34.460Z,2.60
2022-11-26T11:47:38.732Z,2.10
2022-11-26T11:50:05.743Z,2.63
2022-11-26T11:52:22.177Z,3.05
2022-11-26T11:54:31.077Z,2.40
2022-11-26T11:56:39.658Z,2.95
2022-11-26T11:58:58.964Z,2.40
2022-11-26T12:01:12.494Z,2.55
2022-11-26T12:03:39.163Z,2.90
2022-11-26T12:05:50.037Z,2.40
2022-11-26T12:08:01.719Z,2.42
2022-11-26T12:10:13.285Z,4.38
2022-11-26T12:12:24.140Z,2.83
2022-11-26T12:14:35.809Z,3.13
2022-11-26T12:16:43.567Z,3.00
2022-11-26T12:18:51.904Z,2.65
2022-11-26T12:20:59.938Z,3.08
2022-11-26T12:23:26.097Z,3.25
2022-11-26T12:25:36.652Z,3.33
2022-11-26T12:27:44.539Z,3.15
2022-11-26T12:29:53.083Z,3.05
2022-11-26T12:32:00.491Z,3.13
2022-11-26T12:34:08.955Z,3.83
2022-11-26T12:36:18.013Z,3.45
2022-11-26T12:38:27.908Z,5.90
2022-11-26T12:40:35.345Z,3.35
2022-11-26T12:42:45.221Z,9.25
2022-11-26T12:44:51.830Z,4.25
2022-11-26T12:47:01.184Z,2.72
2022-11-26T12:49:11.247Z,2.83
2022-11-26T12:51:21.123Z,2.88
2022-11-26T12:53:35.022Z,2.80
2022-11-26T12:55:46.955Z,2.97
2022-11-26T12:57:55.352Z,3.08
2022-11-26T13:00:06.259Z,2.60
2022-11-26T13:02:21.437Z,2.60
2022-11-26T13:04:44.064Z,2.85
2022-11-26T13:07:00.175Z,2.38
2022-11-26T13:09:15.511Z,2.65
2022-11-26T13:11:27.691Z,2.95
2022-11-26T13:13:39.405Z,2.58
2022-11-26T13:15:47.528Z,2.70
2022-11-26T13:17:51.614Z,2.70
2022-11-26T13:19:58.305Z,2.53
2022-11-26T13:22:23.014Z,2.58
2022-11-26T13:24:50.282Z,2.35
2022-11-26T13:27:09.581Z,2.00
2022-11-26T13:29:46.936Z,2.20
2022-11-26T13:32:13.068Z,2.17
2022-11-26T13:34:51.722Z,2.58
2022-11-26T13:37:07.490Z,2.17
2022-11-26T13:39:24.179Z,2.63
2022-11-26T13:41:50.846Z,2.10
2022-11-26T13:44:37.506Z,2.05
2022-11-26T13:46:42.766Z,2.03
2022-11-26T13:48:53.939Z,2.05
2022-11-26T13:51:02.515Z,3.03
2022-11-26T13:53:12.026Z,2.10
2022-11-26T13:55:21.602Z,2.17
2022-11-26T13:57:31.426Z,1.95
2022-11-26T13:59:35.110Z,2.17
2022-11-26T14:01:40.620Z,2.40
2022-11-26T14:03:46.687Z,3.33
2022-11-26T14:06:09.657Z,2.42
2022-11-26T14:08:35.349Z,2.00
2022-11-26T14:10:44.364Z,2.55
2022-11-26T14:13:12.893Z,2.70
2022-11-26T14:15:51.214Z,1.77
2022-11-26T14:17:57.121Z,1.92
2022-11-26T14:20:11.432Z,2.65
2022-11-26T14:22:30.363Z,3.35
2022-11-26T14:24:55.762Z,2.92
2022-11-26T14:26:58.401Z,2.45
2022-11-26T14:29:14.129Z,2.28
2022-11-26T14:31:22.589Z,2.35
2022-11-26T14:33:29.227Z,2.13
2022-11-26T14:35:34.579Z,2.45
2022-11-26T14:37:50.922Z,2.67
2022-11-26T14:40:00.787Z,2.50
2022-11-26T14:42:06.410Z,2.50
2022-11-26T14:44:12.768Z,2.47
2022-11-26T14:46:18.640Z,3.47
2022-11-26T14:48:27.062Z,3.40
2022-11-26T14:50:32.159Z,3.08
2022-11-26T14:52:36.938Z,3.17
2022-11-26T14:54:41.501Z,3.38
2022-11-26T14:56:46.531Z,2.65
2022-11-26T14:58:52.727Z,2.75
2022-11-26T15:01:04.977Z,3.53
2022-11-26T15:03:23.339Z,2.83
2022-11-26T15:05:27.958Z,3.70
2022-11-26T15:07:32.253Z,3.00
2022-11-26T15:09:34.916Z,3.50
2022-11-26T15:11:43.429Z,2.80
2022-11-26T15:13:47.982Z,3.10
2022-11-26T15:15:52.549Z,3.45
2022-11-26T15:17:59.774Z,3.70
2022-11-26T15:20:07.715Z,2.97
2022-11-26T15:22:21.679Z,2.65
2022-11-26T15:24:24.447Z,3.30
2022-11-26T15:26:32.704Z,5.10
2022-11-26T15:28:40.960Z,3.70
2022-11-26T15:30:54.839Z,4.72
2022-11-26T15:33:01.897Z,3.85
2022-11-26T15:35:05.155Z,4.45
2022-11-26T15:37:07.801Z,3.72
2022-11-26T15:39:26.068Z,4.45
2022-11-26T15:41:28.871Z,3.42
2022-11-26T15:43:34.610Z,4.18
2022-11-26T15:45:41.383Z,3.88
2022-11-26T15:47:48.977Z,4.78
2022-11-26T15:49:55.118Z,3.65
2022-11-26T15:52:03.430Z,3.70
2022-11-26T15:54:18.732Z,3.60
2022-11-26T15:56:24.914Z,4.30
2022-11-26T15:58:31.150Z,5.13
2022-11-26T16:00:37.523Z,5.45
2022-11-26T16:02:41.451Z,5.65
2022-11-26T16:04:45.615Z,5.13
2022-11-26T16:06:48.244Z,4.82
2022-11-26T16:08:59.494Z,4.10
2022-11-26T16:11:09.241Z,4.78
2022-11-26T16:13:22.803Z,4.60
2022-11-26T16:15:27.501Z,5.43
2022-11-26T16:17:30.161Z,6.00
2022-11-26T16:19:34.208Z,5.72
2022-11-26T16:21:39.067Z,6.88
2022-11-26T16:23:42.408Z,8.15
2022-11-26T16:26:17.356Z,7.85
2022-11-26T16:28:20.009Z,6.75
2022-11-26T16:30:22.801Z,7.60
2022-11-26T16:32:25.531Z,7.57
2022-11-26T16:34:28.398Z,7.97
2022-11-26T16:36:34.921Z,7.53
2022-11-26T16:38:37.912Z,8.27
2022-11-26T16:40:40.549Z,8.18
2022-11-26T16:42:43.135Z,9.05
2022-11-26T16:44:45.738Z,8.13
2022-11-26T16:46:51.368Z,8.43
2022-11-26T16:48:54.275Z,9.30
2022-11-26T16:50:57.584Z,9.00
2022-11-26T16:53:01.524Z,8.60
2022-11-26T16:55:04.275Z,8.88
2022-11-26T16:57:12.394Z,9.60
2022-11-26T16:59:21.096Z,10.00
2022-11-26T17:01:23.669Z,10.07
2022-11-26T17:03:27.546Z,10.68
2022-11-26T17:05:30.276Z,11.10
2022-11-26T17:07:38.929Z,10.93
2022-11-26T17:09:43.558Z,10.00
2022-11-26T17:11:46.792Z,10.00
2022-11-26T17:13:49.450Z,9.82
2022-11-26T17:15:52.505Z,9.38
2022-11-26T17:18:00.933Z,9.48
2022-11-26T17:20:04.422Z,9.95
2022-11-26T17:22:07.041Z,10.35
2022-11-26T17:24:09.695Z,10.45
2022-11-26T17:26:20.098Z,10.48
2022-11-26T17:28:23.261Z,11.00
2022-11-26T17:30:26.012Z,9.02
2022-11-26T17:32:28.655Z,9.60
2022-11-26T17:34:31.294Z,9.93
2022-11-26T17:36:36.776Z,9.82
2022-11-26T17:38:39.784Z,9.52
2022-11-26T17:40:42.641Z,10.07
2022-11-26T17:42:46.532Z,10.25
2022-11-26T17:44:49.464Z,10.15
2022-11-26T17:47:15.917Z,9.90
2022-11-26T17:49:15.103Z,10.20
2022-11-26T17:51:18.289Z,11.98
2022-11-26T17:53:21.079Z,10.70
2022-11-26T17:55:25.276Z,10.65
2022-11-26T17:57:28.310Z,10.63
2022-11-26T17:59:32.575Z,11.13
2022-11-26T18:01:35.250Z,9.68
2022-11-26T18:03:37.953Z,9.60
2022-11-26T18:05:42.363Z,9.77
2022-11-26T18:07:45.356Z,9.02
2022-11-26T18:09:48.302Z,9.50
2022-11-26T18:11:53.292Z,12.23
2022-11-26T18:13:55.923Z,10.02
2022-11-26T18:16:01.017Z,11.48
2022-11-26T18:18:04.440Z,11.20
2022-11-26T18:20:10.182Z,9.90
2022-11-26T18:22:16.942Z,10.80
2022-11-26T18:24:19.981Z,10.90
2022-11-26T18:26:22.599Z,10.68
2022-11-26T18:28:25.168Z,11.40
2022-11-26T18:30:30.554Z,10.55
2022-11-26T18:32:34.629Z,10.98
2022-11-26T18:34:38.522Z,11.25
2022-11-26T18:36:41.159Z,10.25
2022-11-26T18:38:43.754Z,10.27
2022-11-26T18:40:46.400Z,9.45
2022-11-26T18:42:52.809Z,10.10
2022-11-26T18:44:55.461Z,11.63
2022-11-26T18:46:58.075Z,11.80
2022-11-26T18:49:02.046Z,12.20
2022-11-26T18:51:06.226Z,13.57
2022-11-26T18:53:08.831Z,14.25
2022-11-26T18:55:13.864Z,15.57
2022-11-26T18:57:16.507Z,15.52
2022-11-26T18:59:19.164Z,15.65
2022-11-26T19:01:24.405Z,15.30
2022-11-26T19:03:28.293Z,14.10
2022-11-26T19:05:32.345Z,13.98
2022-11-26T19:07:35.018Z,13.98
2022-11-26T19:09:38.243Z,13.95
2022-11-26T19:11:41.479Z,13.45
2022-11-26T19:13:44.245Z,13.07
2022-11-26T19:15:47.268Z,12.82
2022-11-26T19:17:49.901Z,12.82
2022-11-26T19:19:52.640Z,12.65
2022-11-26T19:22:00.993Z,13.05
2022-11-26T19:24:06.553Z,13.15
2022-11-26T19:26:09.187Z,12.35
2022-11-26T19:28:12.223Z,14.52
2022-11-26T19:30:17.265Z,14.35
2022-11-26T19:32:19.865Z,13.85
2022-11-26T19:34:22.518Z,14.75
2022-11-26T19:36:26.460Z,13.80
2022-11-26T19:38:30.477Z,15.05
2022-11-26T19:40:33.322Z,16.10
2022-11-26T19:42:35.923Z,16.42
2022-11-26T19:44:38.650Z,15.45
2022-11-26T19:46:41.862Z,14.88
2022-11-26T19:48:46.204Z,15.18
2022-11-26T19:50:55.994Z,14.98
2022-11-26T19:52:58.682Z,19.73
2022-11-26T19:55:02.740Z,15.52
2022-11-26T19:57:07.043Z,15.25
2022-11-26T19:59:11.991Z,14.98
2022-11-26T20:01:17.059Z,15.50
2022-11-26T20:03:19.967Z,16.52
2022-11-26T20:05:22.627Z,15.48
2022-11-26T20:07:25.258Z,15.38
2022-11-26T20:09:27.926Z,15.20
2022-11-26T20:11:32.068Z,16.67
2022-11-26T20:13:36.113Z,15.43
2022-11-26T20:15:40.623Z,14.18
2022-11-26T20:17:43.207Z,16.98
2022-11-26T20:19:46.703Z,19.10
2022-11-26T20:21:50.959Z,14.85
2022-11-26T20:23:55.138Z,13.77
2022-11-26T20:25:57.980Z,13.80
2022-11-26T20:28:02.338Z,14.13
2022-11-26T20:30:05.818Z,14.10
2022-11-26T20:32:08.456Z,15.32
2022-11-26T20:34:11.265Z,14.50
2022-11-26T20:36:17.656Z,13.77
2022-11-26T20:38:20.272Z,14.90
2022-11-26T20:40:22.850Z,19.35
2022-11-26T20:42:25.579Z,23.13
2022-11-26T20:44:29.611Z,21.55
2022-11-26T20:46:32.416Z,19.55
2022-11-26T20:48:38.687Z,17.35
2022-11-26T20:50:41.279Z,16.38
2022-11-26T20:52:43.896Z,17.27
2022-11-26T20:54:52.158Z,19.38
2022-11-26T20:56:56.166Z,18.58
2022-11-26T20:58:58.779Z,19.55
2022-11-26T21:01:03.175Z,18.63
2022-11-26T21:03:08.145Z,17.98
2022-11-26T21:05:11.074Z,17.77
2022-11-26T21:07:13.782Z,18.13
2022-11-26T21:09:16.919Z,20.17
2022-11-26T21:11:19.547Z,16.52
2022-11-26T21:13:22.886Z,19.40
2022-11-26T21:15:26.599Z,18.52
2022-11-26T21:17:30.745Z,18.02
2022-11-26T21:19:33.401Z,17.45
2022-11-26T21:21:36.368Z,17.15
2022-11-26T21:23:40.126Z,18.05
2022-11-26T21:25:44.156Z,18.10
2022-11-26T21:27:48.683Z,20.92
2022-11-26T21:29:54.402Z,26.20
2022-11-26T21:31:57.218Z,28.23
2022-11-26T21:34:02.923Z,26.67
2022-11-26T21:36:06.918Z,21.42
2022-11-26T21:38:09.791Z,53.10
2022-11-26T21:40:13.288Z,31.27
2022-11-26T21:42:15.917Z,25.50
2022-11-26T21:44:18.695Z,23.02
2022-11-26T21:46:23.397Z,21.70
2022-11-26T21:48:26.181Z,21.83
2022-11-26T21:50:30.214Z,20.90
2022-11-26T21:52:32.925Z,17.58
2022-11-26T21:54:36.592Z,16.42
2022-11-26T21:56:39.248Z,16.98
2022-11-26T21:58:42.067Z,16.90
2022-11-26T22:00:44.898Z,14.85
2022-11-26T22:02:47.578Z,15.05
2022-11-26T22:04:50.249Z,14.55
2022-11-26T22:06:54.256Z,15.43
2022-11-26T22:08:56.998Z,14.70
2022-11-26T22:10:59.674Z,15.50
2022-11-26T22:13:02.384Z,15.07
2022-11-26T22:15:05.503Z,15.20
2022-11-26T22:17:08.087Z,14.52
2022-11-26T22:19:11.094Z,15.48
2022-11-26T22:21:16.668Z,13.63
2022-11-26T22:23:22.703Z,15.57
2022-11-26T22:25:25.661Z,14.18
2022-11-26T22:27:28.259Z,15.95
2022-11-26T22:29:30.986Z,15.35
2022-11-26T22:31:35.312Z,14.50
2022-11-26T22:33:38.364Z,14.25
2022-11-26T22:35:40.966Z,13.45
2022-11-26T22:37:43.571Z,13.93
2022-11-26T22:39:52.426Z,13.75
2022-11-26T22:41:56.485Z,14.27
2022-11-26T22:43:59.373Z,13.48
2022-11-26T22:46:04.519Z,13.43
2022-11-26T22:48:07.596Z,13.98
2022-11-26T22:50:11.192Z,13.57
2022-11-26T22:52:13.783Z,14.23
2022-11-26T22:54:18.115Z,14.15
2022-11-26T22:56:22.460Z,14.43
2022-11-26T22:58:26.239Z,13.48
2022-11-26T23:00:46.849Z,13.13
2022-11-26T23:02:49.600Z,14.73
2022-11-26T23:04:53.191Z,13.70
2022-11-26T23:06:56.203Z,13.75
2022-11-26T23:09:00.459Z,13.27
2022-11-26T23:11:06.978Z,14.35
2022-11-26T23:13:12.483Z,14.50
2022-11-26T23:15:15.149Z,14.20
2022-11-26T23:17:17.776Z,14.13
2022-11-26T23:19:20.515Z,14.60
2022-11-26T23:21:25.994Z,15.38
2022-11-26T23:23:28.569Z,15.60
2022-11-26T23:25:31.209Z,15.43
2022-11-26T23:27:33.949Z,14.60
2022-11-26T23:29:38.290Z,13.35
2022-11-26T23:31:43.355Z,14.13
2022-11-26T23:33:50.047Z,13.52
2022-11-26T23:35:52.663Z,14.43
2022-11-26T23:37:55.319Z,13.52
2022-11-26T23:39:57.957Z,13.80
2022-11-26T23:42:00.578Z,13.77
2022-11-26T23:44:03.442Z,12.63
2022-11-26T23:46:10.920Z,12.48
2022-11-26T23:48:13.573Z,12.60
2022-11-26T23:50:16.189Z,12.68
2022-11-26T23:52:18.795Z,12.20
2022-11-26T23:54:21.359Z,11.63
2022-11-26T23:56:26.454Z,12.85
2022-11-26T23:58:29.063Z,12.00
